createdAt,value
2017-04-11T00:01:00.608Z,0
2017-04-11T00:02:11.606Z,0
2017-04-11T00:03:22.614Z,0
2017-04-11T00:04:33.621Z,0
2017-04-11T00:05:44.628Z,0
2017-04-11T00:06:55.822Z,0
2017-04-11T00:08:06.836Z,0
2017-04-11T00:09:17.849Z,0
2017-04-11T00:10:28.886Z,0
2017-04-11T00:11:39.928Z,0
2017-04-11T00:12:50.929Z,0
2017-04-11T00:14:02.125Z,0
2017-04-11T00:15:13.325Z,0
2017-04-11T00:16:24.322Z,0
2017-04-11T00:17:35.323Z,0
2017-04-11T00:18:46.522Z,0
2017-04-11T00:19:57.514Z,0
2017-04-11T00:21:08.511Z,0
2017-04-11T00:22:19.702Z,0
2017-04-11T00:23:30.694Z,0
2017-04-11T00:24:42.090Z,0
2017-04-11T00:25:53.294Z,0
2017-04-11T00:27:04.284Z,0
2017-04-11T00:28:15.481Z,0
2017-04-11T00:29:26.871Z,0
2017-04-11T00:30:37.869Z,0
2017-04-11T00:31:48.872Z,0
2017-04-11T00:32:59.874Z,0
2017-04-11T00:34:11.082Z,0
2017-04-11T00:35:22.285Z,0
2017-04-11T00:36:33.278Z,0
2017-04-11T00:37:44.283Z,0
2017-04-11T00:38:55.279Z,0
2017-04-11T00:40:06.267Z,0
2017-04-11T00:41:17.273Z,0
2017-04-11T00:42:28.285Z,0
2017-04-11T00:43:39.545Z,0
2017-04-11T00:44:50.539Z,0
2017-04-11T00:46:01.531Z,0
2017-04-11T00:47:12.534Z,0
2017-04-11T00:48:23.779Z,0
2017-04-11T00:49:34.986Z,0
2017-04-11T00:50:45.988Z,0
2017-04-11T00:51:56.984Z,0
2017-04-11T00:53:08.001Z,0
2017-04-11T00:54:19.212Z,0
2017-04-11T00:55:30.420Z,0
2017-04-11T00:56:41.425Z,0
2017-04-11T00:57:52.687Z,0
2017-04-11T00:59:03.672Z,0
2017-04-11T01:00:14.676Z,0
2017-04-11T01:01:25.671Z,0
2017-04-11T01:02:36.669Z,0
2017-04-11T01:03:47.858Z,0
2017-04-11T01:04:58.857Z,0
2017-04-11T01:06:09.859Z,0
2017-04-11T01:07:20.849Z,0
2017-04-11T01:08:31.849Z,0
2017-04-11T01:09:42.852Z,0
2017-04-11T01:10:53.874Z,0
2017-04-11T01:12:04.894Z,0
2017-04-11T01:13:16.251Z,0
2017-04-11T01:14:27.247Z,0
2017-04-11T01:15:38.255Z,0
2017-04-11T01:16:49.249Z,0
2017-04-11T01:18:00.243Z,0
2017-04-11T01:19:11.252Z,0
2017-04-11T01:20:22.247Z,0
2017-04-11T01:21:33.254Z,0
2017-04-11T01:22:44.261Z,0
2017-04-11T01:23:55.469Z,0
2017-04-11T01:25:06.666Z,0
2017-04-11T01:26:17.678Z,0
2017-04-11T01:27:28.679Z,0
2017-04-11T01:28:39.740Z,0
2017-04-11T01:29:50.780Z,0
2017-04-11T01:31:01.796Z,0
2017-04-11T01:32:12.801Z,0
2017-04-11T01:33:23.801Z,0
2017-04-11T01:34:34.794Z,0
2017-04-11T01:35:45.799Z,0
2017-04-11T01:36:56.801Z,0
2017-04-11T01:38:07.998Z,0
2017-04-11T01:39:18.996Z,0
2017-04-11T01:40:30.187Z,0
2017-04-11T01:41:41.384Z,0
2017-04-11T01:42:52.391Z,0
2017-04-11T01:44:03.390Z,0
2017-04-11T01:45:14.418Z,0
2017-04-11T01:46:25.614Z,0
2017-04-11T01:47:36.609Z,0
2017-04-11T01:48:47.807Z,0
2017-04-11T01:49:58.813Z,0
2017-04-11T01:51:10.012Z,0
2017-04-11T01:52:21.226Z,0
2017-04-11T01:53:32.437Z,0
2017-04-11T01:54:43.442Z,0
2017-04-11T01:55:54.433Z,0
2017-04-11T01:57:05.436Z,0
2017-04-11T01:58:16.442Z,0
2017-04-11T01:59:27.459Z,0
2017-04-11T02:00:38.671Z,0
2017-04-11T02:01:49.676Z,0
2017-04-11T02:03:00.878Z,0
2017-04-11T02:04:11.890Z,0
2017-04-11T02:05:22.945Z,0
2017-04-11T02:06:34.148Z,0
2017-04-11T02:07:45.350Z,0
2017-04-11T02:08:56.571Z,0
2017-04-11T02:10:07.575Z,0
2017-04-11T02:11:18.627Z,0
2017-04-11T02:12:29.633Z,0
2017-04-11T02:13:40.838Z,0
2017-04-11T02:14:52.087Z,0
2017-04-11T02:16:03.291Z,0
2017-04-11T02:17:14.490Z,0
2017-04-11T02:18:25.489Z,0
2017-04-11T02:19:36.682Z,0
2017-04-11T02:20:47.682Z,0
2017-04-11T02:21:58.674Z,0
2017-04-11T02:23:09.691Z,0
2017-04-11T02:24:20.701Z,0
2017-04-11T02:25:31.706Z,0
2017-04-11T02:26:42.713Z,0
2017-04-11T02:27:53.713Z,0
2017-04-11T02:29:04.715Z,0
2017-04-11T02:30:15.771Z,0
2017-04-11T02:31:26.769Z,0
2017-04-11T02:32:37.794Z,0
2017-04-11T02:33:49.012Z,0
2017-04-11T02:35:00.016Z,0
2017-04-11T02:36:11.023Z,0
2017-04-11T02:37:22.020Z,0
2017-04-11T02:38:33.023Z,0
2017-04-11T02:39:44.023Z,0
2017-04-11T02:40:55.011Z,0
2017-04-11T02:42:06.018Z,0
2017-04-11T02:43:17.014Z,0
2017-04-11T02:44:28.217Z,0
2017-04-11T02:45:39.469Z,0
2017-04-11T02:46:50.467Z,0
2017-04-11T02:48:01.475Z,0
2017-04-11T02:49:12.486Z,0
2017-04-11T02:50:23.492Z,0
2017-04-11T02:51:34.500Z,0
2017-04-11T02:52:45.501Z,0
2017-04-11T02:53:56.483Z,0
2017-04-11T02:55:07.668Z,0
2017-04-11T02:56:18.669Z,0
2017-04-11T02:57:29.669Z,0
2017-04-11T02:58:40.663Z,0
2017-04-11T02:59:52.054Z,0
2017-04-11T03:01:03.104Z,0
2017-04-11T03:02:14.314Z,0
2017-04-11T03:03:25.318Z,0
2017-04-11T03:04:36.516Z,0
2017-04-11T03:05:47.554Z,0
2017-04-11T03:06:58.555Z,0
2017-04-11T03:08:09.562Z,0
2017-04-11T03:09:20.763Z,0
2017-04-11T03:10:31.762Z,0
2017-04-11T03:11:42.766Z,0
2017-04-11T03:12:53.815Z,0
2017-04-11T03:14:04.814Z,0
2017-04-11T03:15:15.816Z,0
2017-04-11T03:16:26.870Z,0
2017-04-11T03:17:37.884Z,0
2017-04-11T03:18:48.888Z,0
2017-04-11T03:19:59.885Z,0
2017-04-11T03:21:10.878Z,0
2017-04-11T03:22:22.080Z,0
2017-04-11T03:23:33.092Z,0
2017-04-11T03:24:44.093Z,0
2017-04-11T03:25:55.089Z,0
2017-04-11T03:27:06.282Z,0
2017-04-11T03:28:17.295Z,0
2017-04-11T03:29:28.306Z,0
2017-04-11T03:30:39.510Z,0
2017-04-11T03:31:50.783Z,0
2017-04-11T03:33:01.787Z,0
2017-04-11T03:34:12.795Z,0
2017-04-11T03:35:23.995Z,0
2017-04-11T03:36:34.991Z,0
2017-04-11T03:37:46.004Z,0
2017-04-11T03:38:57.007Z,0
2017-04-11T03:40:08.037Z,0
2017-04-11T03:41:19.029Z,0
2017-04-11T03:42:30.030Z,0
2017-04-11T03:43:41.025Z,0
2017-04-11T03:44:52.019Z,0
2017-04-11T03:46:03.019Z,0
2017-04-11T03:47:14.101Z,0
2017-04-11T03:48:25.104Z,0
2017-04-11T03:49:36.110Z,0
2017-04-11T03:50:47.104Z,0
2017-04-11T03:51:58.108Z,0
2017-04-11T03:53:09.109Z,0
2017-04-11T03:54:20.111Z,0
2017-04-11T03:55:31.109Z,0
2017-04-11T03:56:42.108Z,0
2017-04-11T03:57:53.109Z,0
2017-04-11T03:59:04.109Z,0
2017-04-11T04:00:15.306Z,0
2017-04-11T04:01:26.332Z,0
2017-04-11T04:02:37.540Z,0
2017-04-11T04:03:48.587Z,0
2017-04-11T04:04:59.796Z,0
2017-04-11T04:06:10.794Z,0
2017-04-11T04:07:21.785Z,4
2017-04-11T04:08:32.782Z,4
2017-04-11T04:09:43.979Z,0
2017-04-11T04:10:54.980Z,4
2017-04-11T04:12:06.193Z,0
2017-04-11T04:13:17.183Z,4
2017-04-11T04:14:28.185Z,4
2017-04-11T04:15:39.192Z,4
2017-04-11T04:16:50.195Z,8
2017-04-11T04:18:01.245Z,12
2017-04-11T04:19:12.247Z,12
2017-04-11T04:20:23.250Z,12
2017-04-11T04:21:34.432Z,16
2017-04-11T04:22:45.424Z,20
2017-04-11T04:23:56.425Z,24
2017-04-11T04:25:07.425Z,28
2017-04-11T04:26:18.426Z,28
2017-04-11T04:27:29.418Z,36
2017-04-11T04:28:40.669Z,36
2017-04-11T04:29:51.671Z,40
2017-04-11T04:31:02.674Z,48
2017-04-11T04:32:13.703Z,52
2017-04-11T04:33:24.694Z,60
2017-04-11T04:34:35.710Z,68
2017-04-11T04:35:46.715Z,76
2017-04-11T04:36:57.719Z,80
2017-04-11T04:38:08.920Z,84
2017-04-11T04:39:19.918Z,92
2017-04-11T04:40:30.918Z,104
2017-04-11T04:41:41.920Z,116
2017-04-11T04:42:53.114Z,124
2017-04-11T04:44:04.160Z,140
2017-04-11T04:45:15.358Z,156
2017-04-11T04:46:26.557Z,172
2017-04-11T04:47:37.548Z,184
2017-04-11T04:48:48.541Z,196
2017-04-11T04:49:59.540Z,208
2017-04-11T04:51:10.540Z,224
2017-04-11T04:52:21.550Z,232
2017-04-11T04:53:32.545Z,248
2017-04-11T04:54:43.805Z,256
2017-04-11T04:55:54.793Z,268
2017-04-11T04:57:05.791Z,280
2017-04-11T04:58:16.990Z,300
2017-04-11T04:59:28.192Z,332
2017-04-11T05:00:39.595Z,368
2017-04-11T05:01:50.588Z,424
2017-04-11T05:03:01.578Z,432
2017-04-11T05:04:12.576Z,448
2017-04-11T05:05:23.627Z,524
2017-04-11T05:06:34.625Z,616
2017-04-11T05:07:45.644Z,592
2017-04-11T05:08:57.048Z,736
2017-04-11T05:10:08.059Z,724
2017-04-11T05:11:19.058Z,1200
2017-04-11T05:12:30.054Z,752
2017-04-11T05:13:41.064Z,524
2017-04-11T05:14:52.065Z,512
2017-04-11T05:16:03.271Z,500
2017-04-11T05:17:14.272Z,488
2017-04-11T05:18:25.262Z,504
2017-04-11T05:19:36.269Z,516
2017-04-11T05:20:47.486Z,532
2017-04-11T05:21:58.480Z,552
2017-04-11T05:23:09.491Z,556
2017-04-11T05:24:20.687Z,576
2017-04-11T05:25:31.943Z,596
2017-04-11T05:26:42.951Z,612
2017-04-11T05:27:53.960Z,628
2017-04-11T05:29:04.952Z,628
2017-04-11T05:30:16.150Z,624
2017-04-11T05:31:27.161Z,628
2017-04-11T05:32:38.167Z,624
2017-04-11T05:33:49.372Z,616
2017-04-11T05:35:00.364Z,616
2017-04-11T05:36:11.368Z,624
2017-04-11T05:37:22.576Z,640
2017-04-11T05:38:33.617Z,664
2017-04-11T05:39:44.618Z,692
2017-04-11T05:40:55.606Z,716
2017-04-11T05:42:06.609Z,756
2017-04-11T05:43:17.618Z,848
2017-04-11T05:44:28.619Z,968
2017-04-11T05:45:39.620Z,1064
2017-04-11T05:46:50.662Z,1140
2017-04-11T05:48:01.662Z,1200
2017-04-11T05:49:12.868Z,1212
2017-04-11T05:50:23.862Z,1180
2017-04-11T05:51:34.914Z,1148
2017-04-11T05:52:45.929Z,1152
2017-04-11T05:53:57.136Z,1172
2017-04-11T05:55:08.191Z,1196
2017-04-11T05:56:19.198Z,1256
2017-04-11T05:57:30.197Z,1316
2017-04-11T05:58:41.211Z,1368
2017-04-11T05:59:52.201Z,1428
2017-04-11T06:01:03.191Z,1468
2017-04-11T06:02:14.601Z,1488
2017-04-11T06:03:25.603Z,1556
2017-04-11T06:04:36.603Z,1596
2017-04-11T06:05:47.798Z,1616
2017-04-11T06:06:59.061Z,1636
2017-04-11T06:08:10.256Z,1696
2017-04-11T06:09:21.255Z,1760
2017-04-11T06:10:32.288Z,1844
2017-04-11T06:11:43.294Z,1980
2017-04-11T06:12:54.300Z,2148
2017-04-11T06:14:05.498Z,2284
2017-04-11T06:15:16.493Z,2304
2017-04-11T06:16:27.503Z,2264
2017-04-11T06:17:38.504Z,2236
2017-04-11T06:18:49.501Z,2180
2017-04-11T06:20:00.705Z,2212
2017-04-11T06:21:11.700Z,2248
2017-04-11T06:22:22.969Z,2248
2017-04-11T06:23:34.173Z,2216
2017-04-11T06:24:45.163Z,2112
2017-04-11T06:25:56.157Z,1964
2017-04-11T06:27:07.163Z,1892
2017-04-11T06:28:18.162Z,1948
2017-04-11T06:29:29.164Z,1972
2017-04-11T06:30:40.363Z,1964
2017-04-11T06:31:51.368Z,1924
2017-04-11T06:33:02.623Z,1836
2017-04-11T06:34:13.612Z,1804
2017-04-11T06:35:25.013Z,1748
2017-04-11T06:36:36.013Z,1744
2017-04-11T06:37:47.024Z,1716
2017-04-11T06:38:58.079Z,1708
2017-04-11T06:40:09.279Z,1752
2017-04-11T06:41:20.282Z,1848
2017-04-11T06:42:31.277Z,1884
2017-04-11T06:43:42.484Z,1880
2017-04-11T06:44:53.687Z,1784
2017-04-11T06:46:04.700Z,1588
2017-04-11T06:47:15.707Z,1684
2017-04-11T06:48:26.767Z,1792
2017-04-11T06:49:37.783Z,1852
2017-04-11T06:50:48.781Z,1884
2017-04-11T06:51:59.771Z,1892
2017-04-11T06:53:10.787Z,1896
2017-04-11T06:54:22.001Z,1896
2017-04-11T06:55:33.202Z,1904
2017-04-11T06:56:44.205Z,1896
2017-04-11T06:57:55.203Z,1884
2017-04-11T06:59:06.201Z,1880
2017-04-11T07:00:17.191Z,1880
2017-04-11T07:01:28.196Z,1884
2017-04-11T07:02:39.209Z,1900
2017-04-11T07:03:50.466Z,1916
2017-04-11T07:05:01.468Z,1928
2017-04-11T07:06:12.661Z,1932
2017-04-11T07:07:23.867Z,1952
2017-04-11T07:08:34.903Z,1960
2017-04-11T07:09:45.907Z,1956
2017-04-11T07:10:56.915Z,1976
2017-04-11T07:12:07.932Z,1980
2017-04-11T07:13:18.928Z,1980
2017-04-11T07:14:29.970Z,1984
2017-04-11T07:15:40.967Z,2000
2017-04-11T07:16:51.965Z,2016
2017-04-11T07:18:02.971Z,2036
2017-04-11T07:19:13.973Z,2060
2017-04-11T07:20:25.171Z,2084
2017-04-11T07:21:36.163Z,2132
2017-04-11T07:22:47.181Z,2188
2017-04-11T07:23:58.182Z,2224
2017-04-11T07:25:09.180Z,2244
2017-04-11T07:26:20.180Z,2276
2017-04-11T07:27:31.208Z,2288
2017-04-11T07:28:42.409Z,2292
2017-04-11T07:29:53.889Z,2308
2017-04-11T07:31:04.894Z,2368
2017-04-11T07:32:15.891Z,2452
2017-04-11T07:33:26.891Z,2612
2017-04-11T07:34:37.919Z,2756
2017-04-11T07:35:48.923Z,2916
2017-04-11T07:36:59.920Z,3096
2017-04-11T07:38:10.918Z,3344
2017-04-11T07:39:22.124Z,3640
2017-04-11T07:40:33.126Z,3920
2017-04-11T07:41:44.122Z,4208
2017-04-11T07:42:55.112Z,4476
2017-04-11T07:44:06.314Z,4744
2017-04-11T07:45:17.374Z,5080
2017-04-11T07:46:28.570Z,5484
2017-04-11T07:47:39.570Z,5752
2017-04-11T07:48:50.580Z,5844
2017-04-11T07:50:01.593Z,6008
2017-04-11T07:51:12.635Z,6068
2017-04-11T07:52:23.849Z,6104
2017-04-11T07:53:34.841Z,6176
2017-04-11T07:54:46.040Z,6384
2017-04-11T07:55:57.089Z,6500
2017-04-11T07:57:08.084Z,6384
2017-04-11T07:58:19.094Z,6160
2017-04-11T07:59:30.098Z,5952
2017-04-11T08:00:41.105Z,5812
2017-04-11T08:01:52.107Z,5788
2017-04-11T08:03:03.106Z,5888
2017-04-11T08:04:14.103Z,6028
2017-04-11T08:05:25.105Z,6352
2017-04-11T08:06:36.324Z,6484
2017-04-11T08:07:47.532Z,6364
2017-04-11T08:08:58.530Z,6072
2017-04-11T08:10:09.548Z,6324
2017-04-11T08:11:20.535Z,6416
2017-04-11T08:12:31.544Z,6292
2017-04-11T08:13:42.544Z,6396
2017-04-11T08:14:53.556Z,6620
2017-04-11T08:16:04.765Z,6756
2017-04-11T08:17:15.809Z,6756
2017-04-11T08:18:27.015Z,6516
2017-04-11T08:19:38.030Z,6064
2017-04-11T08:20:49.033Z,5840
2017-04-11T08:22:00.028Z,5824
2017-04-11T08:23:11.243Z,5840
2017-04-11T08:24:22.253Z,5616
2017-04-11T08:25:33.260Z,5484
2017-04-11T08:26:44.312Z,5480
2017-04-11T08:27:55.521Z,5900
2017-04-11T08:29:06.578Z,6412
2017-04-11T08:30:17.780Z,6504
2017-04-11T08:31:28.822Z,6632
2017-04-11T08:32:39.828Z,6916
2017-04-11T08:33:51.026Z,7108
2017-04-11T08:35:02.041Z,7276
2017-04-11T08:36:13.047Z,7408
2017-04-11T08:37:24.309Z,7556
2017-04-11T08:38:35.316Z,7720
2017-04-11T08:39:46.340Z,7952
2017-04-11T08:40:57.342Z,8240
2017-04-11T08:42:08.343Z,8500
2017-04-11T08:43:19.342Z,8744
2017-04-11T08:44:30.395Z,9164
2017-04-11T08:45:41.404Z,9552
2017-04-11T08:46:52.607Z,9516
2017-04-11T08:48:03.834Z,9272
2017-04-11T08:49:14.843Z,9424
2017-04-11T08:50:25.852Z,9772
2017-04-11T08:51:36.860Z,10152
2017-04-11T08:52:47.861Z,10344
2017-04-11T08:53:58.867Z,10376
2017-04-11T08:55:09.855Z,10392
2017-04-11T08:56:20.860Z,10360
2017-04-11T08:57:31.876Z,10320
2017-04-11T08:58:42.876Z,10180
2017-04-11T08:59:53.883Z,9968
2017-04-11T09:01:05.104Z,9784
2017-04-11T09:02:16.113Z,9784
2017-04-11T09:03:27.159Z,10052
2017-04-11T09:04:38.157Z,10328
2017-04-11T09:05:49.159Z,10180
2017-04-11T09:07:00.158Z,10028
2017-04-11T09:08:11.161Z,10740
2017-04-11T09:09:22.167Z,13540
2017-04-11T09:10:33.167Z,30560
2017-04-11T09:11:44.185Z,56960
2017-04-11T09:12:55.194Z,67840
2017-04-11T09:14:06.242Z,50464
2017-04-11T09:15:17.465Z,80736
2017-04-11T09:16:28.473Z,30944
2017-04-11T09:17:39.479Z,34400
2017-04-11T09:18:50.504Z,24640
2017-04-11T09:20:01.498Z,24128
2017-04-11T09:21:12.506Z,22048
2017-04-11T09:22:23.525Z,21280
2017-04-11T09:23:34.530Z,21280
2017-04-11T09:24:45.593Z,27424
2017-04-11T09:25:56.804Z,23104
2017-04-11T09:27:08.022Z,24576
2017-04-11T09:28:19.238Z,27680
2017-04-11T09:29:30.237Z,26816
2017-04-11T09:30:41.251Z,24576
2017-04-11T09:31:52.460Z,25312
2017-04-11T09:33:03.464Z,24544
2017-04-11T09:34:14.522Z,47168
2017-04-11T09:35:25.530Z,30048
2017-04-11T09:36:36.540Z,29696
2017-04-11T09:37:47.555Z,43136
2017-04-11T09:38:58.559Z,56704
2017-04-11T09:40:09.825Z,47200
2017-04-11T09:41:21.044Z,80032
2017-04-11T09:42:32.056Z,61792
2017-04-11T09:43:43.062Z,73312
2017-04-11T09:44:54.066Z,74144
2017-04-11T09:46:05.078Z,73344
2017-04-11T09:47:16.092Z,71552
2017-04-11T09:48:27.320Z,62720
2017-04-11T09:49:38.541Z,70432
2017-04-11T09:50:49.611Z,74464
2017-04-11T09:52:00.629Z,72992
2017-04-11T09:53:11.649Z,77536
2017-04-11T09:54:22.657Z,78656
2017-04-11T09:55:33.673Z,76032
2017-04-11T09:56:44.894Z,72672
2017-04-11T09:57:55.913Z,71936
2017-04-11T09:59:07.137Z,74688
2017-04-11T10:00:18.358Z,79104
2017-04-11T10:01:29.618Z,66016
2017-04-11T10:02:40.626Z,44736
2017-04-11T10:03:51.646Z,73760
2017-04-11T10:05:02.661Z,81088
2017-04-11T10:06:13.681Z,47296
2017-04-11T10:07:24.702Z,59712
2017-04-11T10:08:35.729Z,26688
2017-04-11T10:09:46.741Z,25856
2017-04-11T10:10:57.758Z,25120
2017-04-11T10:12:08.983Z,30720
2017-04-11T10:13:19.997Z,26944
2017-04-11T10:14:31.066Z,30944
2017-04-11T10:15:42.086Z,39680
2017-04-11T10:16:53.102Z,21632
2017-04-11T10:18:04.122Z,22048
2017-04-11T10:19:15.152Z,23584
2017-04-11T10:20:26.169Z,25440
2017-04-11T10:21:37.181Z,24640
2017-04-11T10:22:48.259Z,18336
2017-04-11T10:23:59.283Z,18400
2017-04-11T10:25:10.301Z,19968
2017-04-11T10:26:21.313Z,22080
2017-04-11T10:27:32.330Z,17856
2017-04-11T10:28:43.338Z,34976
2017-04-11T10:29:54.365Z,15680
2017-04-11T10:31:05.380Z,15232
2017-04-11T10:32:16.393Z,38112
2017-04-11T10:33:27.667Z,13968
2017-04-11T10:34:38.883Z,13620
2017-04-11T10:35:50.117Z,14500
2017-04-11T10:37:01.130Z,23584
2017-04-11T10:38:12.350Z,22336
2017-04-11T10:39:23.573Z,15936
2017-04-11T10:40:34.590Z,12284
2017-04-11T10:41:45.599Z,9872
2017-04-11T10:42:56.608Z,8928
2017-04-11T10:44:07.875Z,8528
2017-04-11T10:45:18.888Z,8224
2017-04-11T10:46:30.132Z,8080
2017-04-11T10:47:41.348Z,8520
2017-04-11T10:48:52.773Z,9124
2017-04-11T10:50:03.844Z,9184
2017-04-11T10:51:14.858Z,8268
2017-04-11T10:52:25.868Z,7284
2017-04-11T10:53:37.074Z,6740
2017-04-11T10:54:48.286Z,6560
2017-04-11T10:55:59.296Z,6796
2017-04-11T10:57:10.304Z,6884
2017-04-11T10:58:21.502Z,7100
2017-04-11T10:59:32.509Z,7060
2017-04-11T11:00:43.588Z,7280
2017-04-11T11:01:54.801Z,7596
2017-04-11T11:03:05.795Z,7860
2017-04-11T11:04:16.812Z,8692
2017-04-11T11:05:28.026Z,9040
2017-04-11T11:06:39.032Z,9276
2017-04-11T11:07:50.233Z,11960
2017-04-11T11:09:01.242Z,12340
2017-04-11T11:10:12.245Z,11844
2017-04-11T11:11:23.506Z,12000
2017-04-11T11:12:34.514Z,10788
2017-04-11T11:13:45.535Z,11808
2017-04-11T11:14:56.546Z,15904
2017-04-11T11:16:07.548Z,14476
2017-04-11T11:17:18.555Z,13972
2017-04-11T11:18:29.567Z,14404
2017-04-11T11:19:40.576Z,16096
2017-04-11T11:20:51.573Z,15744
2017-04-11T11:22:02.631Z,14348
2017-04-11T11:23:13.848Z,14084
2017-04-11T11:24:24.852Z,15072
2017-04-11T11:25:35.855Z,17056
2017-04-11T11:26:46.855Z,25632
2017-04-11T11:27:58.060Z,19456
2017-04-11T11:29:09.071Z,20000
2017-04-11T11:30:20.067Z,27328
2017-04-11T11:31:31.078Z,25216
2017-04-11T11:32:42.092Z,20480
2017-04-11T11:33:53.309Z,18944
2017-04-11T11:35:04.326Z,17088
2017-04-11T11:36:15.733Z,15176
2017-04-11T11:37:26.751Z,13928
2017-04-11T11:38:37.758Z,13148
2017-04-11T11:39:48.768Z,12432
2017-04-11T11:40:59.773Z,12576
2017-04-11T11:42:10.783Z,14584
2017-04-11T11:43:21.849Z,28736
2017-04-11T11:44:33.065Z,36800
2017-04-11T11:45:44.067Z,18944
2017-04-11T11:46:55.304Z,19744
2017-04-11T11:48:06.315Z,19040
2017-04-11T11:49:17.327Z,36800
2017-04-11T11:50:28.534Z,28704
2017-04-11T11:51:39.544Z,15424
2017-04-11T11:52:50.560Z,35008
2017-04-11T11:54:01.826Z,28800
2017-04-11T11:55:12.831Z,29184
2017-04-11T11:56:23.837Z,26656
2017-04-11T11:57:35.045Z,31552
2017-04-11T11:58:46.049Z,20096
2017-04-11T11:59:57.057Z,21792
2017-04-11T12:01:08.265Z,19232
2017-04-11T12:02:19.294Z,21120
2017-04-11T12:03:30.508Z,20544
2017-04-11T12:04:41.578Z,24800
2017-04-11T12:05:52.798Z,24960
2017-04-11T12:07:03.797Z,21952
2017-04-11T12:08:14.821Z,20576
2017-04-11T12:09:25.857Z,15488
2017-04-11T12:10:36.862Z,15744
2017-04-11T12:11:48.081Z,23616
2017-04-11T12:12:59.104Z,15968
2017-04-11T12:14:10.122Z,14572
2017-04-11T12:15:21.137Z,13524
2017-04-11T12:16:32.151Z,17760
2017-04-11T12:17:43.155Z,13616
2017-04-11T12:18:54.368Z,12216
2017-04-11T12:20:05.416Z,10840
2017-04-11T12:21:16.459Z,9760
2017-04-11T12:22:27.483Z,8636
2017-04-11T12:23:38.508Z,7956
2017-04-11T12:24:49.726Z,7136
2017-04-11T12:26:00.741Z,6044
2017-04-11T12:27:11.749Z,5344
2017-04-11T12:28:22.764Z,5232
2017-04-11T12:29:33.765Z,5456
2017-04-11T12:30:45.026Z,5340
2017-04-11T12:31:56.043Z,4992
2017-04-11T12:33:07.067Z,4768
2017-04-11T12:34:18.076Z,4624
2017-04-11T12:35:29.104Z,4400
2017-04-11T12:36:40.104Z,4168
2017-04-11T12:37:51.119Z,3992
2017-04-11T12:39:02.366Z,3780
2017-04-11T12:40:13.576Z,3544
2017-04-11T12:41:24.779Z,3328
2017-04-11T12:42:35.788Z,3152
2017-04-11T12:43:46.796Z,2996
2017-04-11T12:44:57.812Z,2840
2017-04-11T12:46:09.265Z,2636
2017-04-11T12:47:20.283Z,2492
2017-04-11T12:48:31.294Z,2548
2017-04-11T12:49:42.302Z,2792
2017-04-11T12:50:53.306Z,2968
2017-04-11T12:52:04.505Z,3068
2017-04-11T12:53:15.521Z,3200
2017-04-11T12:54:26.534Z,3260
2017-04-11T12:55:37.533Z,3204
2017-04-11T12:56:48.538Z,3268
2017-04-11T12:57:59.546Z,3480
2017-04-11T12:59:10.767Z,3676
2017-04-11T13:00:21.773Z,3836
2017-04-11T13:01:32.778Z,4016
2017-04-11T13:02:43.983Z,4204
2017-04-11T13:03:54.985Z,4412
2017-04-11T13:05:06.005Z,4472
2017-04-11T13:06:17.420Z,4404
2017-04-11T13:07:28.620Z,4348
2017-04-11T13:08:39.620Z,4196
2017-04-11T13:09:50.829Z,4012
2017-04-11T13:11:02.245Z,3840
2017-04-11T13:12:13.251Z,3660
2017-04-11T13:13:24.257Z,3500
2017-04-11T13:14:35.259Z,3352
2017-04-11T13:15:46.271Z,3136
2017-04-11T13:16:57.532Z,2844
2017-04-11T13:18:08.535Z,2624
2017-04-11T13:19:19.541Z,2508
2017-04-11T13:20:30.755Z,2388
2017-04-11T13:21:41.962Z,2216
2017-04-11T13:22:52.959Z,2112
2017-04-11T13:24:04.170Z,2020
2017-04-11T13:25:15.189Z,2044
2017-04-11T13:26:26.241Z,2120
2017-04-11T13:27:37.254Z,2240
2017-04-11T13:28:48.467Z,2320
2017-04-11T13:29:59.482Z,2444
2017-04-11T13:31:10.482Z,2548
2017-04-11T13:32:21.477Z,2640
2017-04-11T13:33:32.485Z,2748
2017-04-11T13:34:43.501Z,2916
2017-04-11T13:35:54.901Z,3376
2017-04-11T13:37:06.214Z,3932
2017-04-11T13:38:17.423Z,4388
2017-04-11T13:39:28.457Z,4252
2017-04-11T13:40:39.483Z,3880
2017-04-11T13:41:50.697Z,3620
2017-04-11T13:43:01.706Z,3580
2017-04-11T13:44:12.716Z,3880
2017-04-11T13:45:23.729Z,4232
2017-04-11T13:46:34.731Z,4564
2017-04-11T13:47:45.736Z,4560
2017-04-11T13:48:57.140Z,4396
2017-04-11T13:50:08.146Z,4556
2017-04-11T13:51:19.163Z,5232
2017-04-11T13:52:30.179Z,5888
2017-04-11T13:53:41.234Z,5968
2017-04-11T13:54:52.242Z,5656
2017-04-11T13:56:03.242Z,5324
2017-04-11T13:57:14.247Z,5000
2017-04-11T13:58:25.245Z,4580
2017-04-11T13:59:36.453Z,4260
2017-04-11T14:00:47.473Z,4088
2017-04-11T14:01:58.480Z,3904
2017-04-11T14:03:09.541Z,3908
2017-04-11T14:04:20.560Z,4228
2017-04-11T14:05:31.600Z,4352
2017-04-11T14:06:42.799Z,4360
2017-04-11T14:07:54.016Z,4308
2017-04-11T14:09:05.023Z,4096
2017-04-11T14:10:16.035Z,3656
2017-04-11T14:11:27.046Z,3304
2017-04-11T14:12:38.252Z,3088
2017-04-11T14:13:49.253Z,2876
2017-04-11T14:15:00.472Z,2660
2017-04-11T14:16:11.489Z,2484
2017-04-11T14:17:22.887Z,2368
2017-04-11T14:18:34.143Z,2356
2017-04-11T14:19:45.161Z,2440
2017-04-11T14:20:56.168Z,2564
2017-04-11T14:22:07.177Z,2616
2017-04-11T14:23:18.190Z,2636
2017-04-11T14:24:29.200Z,2632
2017-04-11T14:25:40.201Z,2676
2017-04-11T14:26:51.207Z,2728
2017-04-11T14:28:02.220Z,2756
2017-04-11T14:29:13.674Z,2768
2017-04-11T14:30:24.684Z,2844
2017-04-11T14:31:35.687Z,2988
2017-04-11T14:32:46.694Z,3040
2017-04-11T14:33:57.697Z,3052
2017-04-11T14:35:08.700Z,3128
2017-04-11T14:36:19.714Z,3348
2017-04-11T14:37:30.717Z,3580
2017-04-11T14:38:41.722Z,3724
2017-04-11T14:39:52.931Z,3740
2017-04-11T14:41:04.144Z,3620
2017-04-11T14:42:15.153Z,3552
2017-04-11T14:43:26.155Z,3504
2017-04-11T14:44:37.415Z,3416
2017-04-11T14:45:48.416Z,3208
2017-04-11T14:46:59.430Z,2952
2017-04-11T14:48:10.649Z,2820
2017-04-11T14:49:21.849Z,2744
2017-04-11T14:50:32.851Z,2592
2017-04-11T14:51:44.045Z,2448
2017-04-11T14:52:55.052Z,2424
2017-04-11T14:54:06.261Z,2508
2017-04-11T14:55:17.477Z,2636
2017-04-11T14:56:28.692Z,2796
2017-04-11T14:57:39.712Z,3088
2017-04-11T14:58:50.915Z,3500
2017-04-11T15:00:01.956Z,3988
2017-04-11T15:01:13.009Z,4528
2017-04-11T15:02:24.005Z,5064
2017-04-11T15:03:35.014Z,5428
2017-04-11T15:04:46.032Z,5692
2017-04-11T15:05:57.038Z,5956
2017-04-11T15:07:08.247Z,6116
2017-04-11T15:08:19.251Z,6168
2017-04-11T15:09:30.691Z,6068
2017-04-11T15:10:41.706Z,5884
2017-04-11T15:11:52.721Z,5788
2017-04-11T15:13:03.937Z,5704
2017-04-11T15:14:15.344Z,5592
2017-04-11T15:15:26.370Z,5544
2017-04-11T15:16:37.386Z,5456
2017-04-11T15:17:48.407Z,5304
2017-04-11T15:18:59.420Z,5336
2017-04-11T15:20:10.700Z,4804
2017-04-11T15:21:21.713Z,4404
2017-04-11T15:22:32.925Z,4472
2017-04-11T15:23:43.935Z,4932
2017-04-11T15:24:54.934Z,5504
2017-04-11T15:26:05.944Z,5880
2017-04-11T15:27:17.140Z,5908
2017-04-11T15:28:28.346Z,5716
2017-04-11T15:29:39.350Z,5664
2017-04-11T15:30:50.561Z,5340
2017-04-11T15:32:01.564Z,4888
2017-04-11T15:33:12.572Z,4448
2017-04-11T15:34:23.585Z,4036
2017-04-11T15:35:34.590Z,3728
2017-04-11T15:36:45.605Z,3428
2017-04-11T15:37:56.664Z,3012
2017-04-11T15:39:07.677Z,2704
2017-04-11T15:40:18.691Z,2652
2017-04-11T15:41:29.901Z,2804
2017-04-11T15:42:40.909Z,2892
2017-04-11T15:43:52.128Z,2784
2017-04-11T15:45:03.126Z,2680
2017-04-11T15:46:14.166Z,2924
2017-04-11T15:47:25.371Z,3264
2017-04-11T15:48:36.378Z,3700
2017-04-11T15:49:47.390Z,3644
2017-04-11T15:50:58.607Z,3492
2017-04-11T15:52:09.608Z,3508
2017-04-11T15:53:20.637Z,3684
2017-04-11T15:54:31.651Z,3888
2017-04-11T15:55:42.648Z,4056
2017-04-11T15:56:53.702Z,4328
2017-04-11T15:58:04.713Z,4472
2017-04-11T15:59:15.723Z,4416
2017-04-11T16:00:26.727Z,4084
2017-04-11T16:01:37.939Z,3812
2017-04-11T16:02:48.958Z,3564
2017-04-11T16:03:59.971Z,3408
2017-04-11T16:05:10.990Z,3392
2017-04-11T16:06:21.998Z,3320
2017-04-11T16:07:33.213Z,3296
2017-04-11T16:08:44.230Z,3276
2017-04-11T16:09:55.246Z,3188